sensor_id;sensor_type;location;lat;lon;timestamp;P1;durP1;ratioP1;P2;durP2;ratioP2
37851;SDS011;23691;52.486;4.650;2023-09-08T00:01:59;10.93;;;4.82;;
37851;SDS011;23691;52.486;4.650;2023-09-08T00:04:24;9.48;;;5.03;;
37851;SDS011;23691;52.486;4.650;2023-09-08T00:06:50;10.90;;;5.47;;
37851;SDS011;23691;52.486;4.650;2023-09-08T00:09:15;10.52;;;5.10;;
37851;SDS011;23691;52.486;4.650;2023-09-08T00:11:41;11.85;;;5.00;;
37851;SDS011;23691;52.486;4.650;2023-09-08T00:14:17;9.43;;;4.70;;
37851;SDS011;23691;52.486;4.650;2023-09-08T00:16:45;11.55;;;5.65;;
37851;SDS011;23691;52.486;4.650;2023-09-08T00:19:11;10.93;;;4.80;;
37851;SDS011;23691;52.486;4.650;2023-09-08T00:21:37;10.00;;;5.05;;
37851;SDS011;23691;52.486;4.650;2023-09-08T00:24:02;11.25;;;5.18;;
37851;SDS011;23691;52.486;4.650;2023-09-08T00:26:29;12.55;;;5.28;;
37851;SDS011;23691;52.486;4.650;2023-09-08T00:28:54;10.77;;;5.45;;
37851;SDS011;23691;52.486;4.650;2023-09-08T00:31:20;11.02;;;5.43;;
37851;SDS011;23691;52.486;4.650;2023-09-08T00:33:45;10.55;;;5.70;;
37851;SDS011;23691;52.486;4.650;2023-09-08T00:36:11;11.00;;;5.55;;
37851;SDS011;23691;52.486;4.650;2023-09-08T00:38:36;10.40;;;5.20;;
37851;SDS011;23691;52.486;4.650;2023-09-08T00:41:04;10.32;;;5.32;;
37851;SDS011;23691;52.486;4.650;2023-09-08T00:45:55;10.95;;;4.82;;
37851;SDS011;23691;52.486;4.650;2023-09-08T00:48:25;10.55;;;5.15;;
37851;SDS011;23691;52.486;4.650;2023-09-08T00:50:51;10.07;;;5.35;;
37851;SDS011;23691;52.486;4.650;2023-09-08T00:53:17;11.23;;;4.82;;
37851;SDS011;23691;52.486;4.650;2023-09-08T00:55:42;9.23;;;5.05;;
37851;SDS011;23691;52.486;4.650;2023-09-08T00:58:09;10.15;;;4.93;;
37851;SDS011;23691;52.486;4.650;2023-09-08T01:00:39;11.05;;;5.35;;
37851;SDS011;23691;52.486;4.650;2023-09-08T01:03:04;10.30;;;5.07;;
37851;SDS011;23691;52.486;4.650;2023-09-08T01:05:30;11.60;;;5.80;;
37851;SDS011;23691;52.486;4.650;2023-09-08T01:07:55;9.93;;;5.18;;
37851;SDS011;23691;52.486;4.650;2023-09-08T01:10:22;9.82;;;5.10;;
37851;SDS011;23691;52.486;4.650;2023-09-08T01:12:48;11.18;;;5.40;;
37851;SDS011;23691;52.486;4.650;2023-09-08T01:15:14;12.15;;;5.60;;
37851;SDS011;23691;52.486;4.650;2023-09-08T01:17:42;9.98;;;5.35;;
37851;SDS011;23691;52.486;4.650;2023-09-08T01:20:17;12.27;;;5.47;;
37851;SDS011;23691;52.486;4.650;2023-09-08T01:22:55;11.20;;;5.45;;
37851;SDS011;23691;52.486;4.650;2023-09-08T01:25:28;9.25;;;5.25;;
37851;SDS011;23691;52.486;4.650;2023-09-08T01:27:55;12.13;;;5.68;;
37851;SDS011;23691;52.486;4.650;2023-09-08T01:30:23;13.63;;;5.50;;
37851;SDS011;23691;52.486;4.650;2023-09-08T01:32:51;13.38;;;5.63;;
37851;SDS011;23691;52.486;4.650;2023-09-08T01:35:18;10.52;;;5.38;;
37851;SDS011;23691;52.486;4.650;2023-09-08T01:37:45;9.73;;;5.13;;
37851;SDS011;23691;52.486;4.650;2023-09-08T01:40:13;10.63;;;5.68;;
37851;SDS011;23691;52.486;4.650;2023-09-08T01:45:07;11.93;;;6.32;;
37851;SDS011;23691;52.486;4.650;2023-09-08T01:47:34;11.00;;;5.93;;
37851;SDS011;23691;52.486;4.650;2023-09-08T01:50:00;10.40;;;5.57;;
37851;SDS011;23691;52.486;4.650;2023-09-08T01:52:26;11.02;;;5.35;;
37851;SDS011;23691;52.486;4.650;2023-09-08T01:54:51;12.32;;;5.70;;
37851;SDS011;23691;52.486;4.650;2023-09-08T01:57:17;10.50;;;5.60;;
37851;SDS011;23691;52.486;4.650;2023-09-08T01:59:43;10.23;;;5.70;;
37851;SDS011;23691;52.486;4.650;2023-09-08T02:02:10;10.85;;;5.97;;
37851;SDS011;23691;52.486;4.650;2023-09-08T02:04:36;11.32;;;5.88;;
37851;SDS011;23691;52.486;4.650;2023-09-08T02:07:01;12.20;;;6.13;;
37851;SDS011;23691;52.486;4.650;2023-09-08T02:09:35;10.88;;;5.90;;
37851;SDS011;23691;52.486;4.650;2023-09-08T02:12:02;10.43;;;5.70;;
37851;SDS011;23691;52.486;4.650;2023-09-08T02:14:28;12.80;;;5.85;;
37851;SDS011;23691;52.486;4.650;2023-09-08T02:16:54;13.98;;;6.43;;
37851;SDS011;23691;52.486;4.650;2023-09-08T02:19:20;13.32;;;6.30;;
37851;SDS011;23691;52.486;4.650;2023-09-08T02:21:46;13.45;;;6.32;;
37851;SDS011;23691;52.486;4.650;2023-09-08T02:24:11;11.63;;;5.93;;
37851;SDS011;23691;52.486;4.650;2023-09-08T02:26:40;10.98;;;5.93;;
37851;SDS011;23691;52.486;4.650;2023-09-08T02:29:05;11.82;;;6.13;;
37851;SDS011;23691;52.486;4.650;2023-09-08T02:31:32;13.25;;;6.47;;
37851;SDS011;23691;52.486;4.650;2023-09-08T02:33:58;12.70;;;6.82;;
37851;SDS011;23691;52.486;4.650;2023-09-08T02:36:24;11.10;;;6.25;;
37851;SDS011;23691;52.486;4.650;2023-09-08T02:38:52;11.13;;;6.35;;
37851;SDS011;23691;52.486;4.650;2023-09-08T02:41:19;12.23;;;6.65;;
37851;SDS011;23691;52.486;4.650;2023-09-08T02:43:45;12.30;;;6.88;;
37851;SDS011;23691;52.486;4.650;2023-09-08T02:46:10;13.63;;;6.60;;
37851;SDS011;23691;52.486;4.650;2023-09-08T02:48:38;12.25;;;6.82;;
37851;SDS011;23691;52.486;4.650;2023-09-08T02:51:04;11.38;;;6.38;;
37851;SDS011;23691;52.486;4.650;2023-09-08T02:53:30;12.70;;;6.45;;
37851;SDS011;23691;52.486;4.650;2023-09-08T02:55:58;12.85;;;6.68;;
37851;SDS011;23691;52.486;4.650;2023-09-08T02:58:35;14.97;;;7.00;;
37851;SDS011;23691;52.486;4.650;2023-09-08T03:03:40;13.05;;;6.43;;
37851;SDS011;23691;52.486;4.650;2023-09-08T03:06:08;11.90;;;6.82;;
37851;SDS011;23691;52.486;4.650;2023-09-08T03:08:37;11.95;;;6.18;;
37851;SDS011;23691;52.486;4.650;2023-09-08T03:11:03;12.48;;;6.38;;
37851;SDS011;23691;52.486;4.650;2023-09-08T03:13:32;12.52;;;6.65;;
37851;SDS011;23691;52.486;4.650;2023-09-08T03:16:06;11.13;;;6.70;;
37851;SDS011;23691;52.486;4.650;2023-09-08T03:18:32;11.63;;;6.45;;
37851;SDS011;23691;52.486;4.650;2023-09-08T03:24:03;11.32;;;6.53;;
37851;SDS011;23691;52.486;4.650;2023-09-08T03:26:29;12.85;;;6.80;;
37851;SDS011;23691;52.486;4.650;2023-09-08T03:28:56;12.98;;;7.00;;
37851;SDS011;23691;52.486;4.650;2023-09-08T03:31:25;13.40;;;7.22;;
37851;SDS011;23691;52.486;4.650;2023-09-08T03:33:53;15.13;;;7.28;;
37851;SDS011;23691;52.486;4.650;2023-09-08T03:36:19;14.25;;;7.22;;
37851;SDS011;23691;52.486;4.650;2023-09-08T03:38:49;12.33;;;7.53;;
37851;SDS011;23691;52.486;4.650;2023-09-08T03:41:26;13.43;;;7.22;;
37851;SDS011;23691;52.486;4.650;2023-09-08T03:43:52;12.88;;;7.50;;
37851;SDS011;23691;52.486;4.650;2023-09-08T03:46:22;12.45;;;7.57;;
37851;SDS011;23691;52.486;4.650;2023-09-08T03:48:51;14.40;;;7.68;;
37851;SDS011;23691;52.486;4.650;2023-09-08T03:51:17;13.05;;;7.82;;
37851;SDS011;23691;52.486;4.650;2023-09-08T03:53:44;13.80;;;7.97;;
37851;SDS011;23691;52.486;4.650;2023-09-08T03:56:09;12.90;;;7.65;;
37851;SDS011;23691;52.486;4.650;2023-09-08T03:58:35;13.07;;;8.10;;
37851;SDS011;23691;52.486;4.650;2023-09-08T04:01:01;17.95;;;8.02;;
37851;SDS011;23691;52.486;4.650;2023-09-08T04:03:26;14.88;;;8.25;;
37851;SDS011;23691;52.486;4.650;2023-09-08T04:05:52;16.75;;;8.77;;
37851;SDS011;23691;52.486;4.650;2023-09-08T04:08:17;13.95;;;8.48;;
37851;SDS011;23691;52.486;4.650;2023-09-08T04:10:43;13.98;;;8.90;;
37851;SDS011;23691;52.486;4.650;2023-09-08T04:13:11;15.80;;;8.90;;
37851;SDS011;23691;52.486;4.650;2023-09-08T04:15:42;15.32;;;8.85;;
37851;SDS011;23691;52.486;4.650;2023-09-08T04:18:07;14.20;;;8.88;;
37851;SDS011;23691;52.486;4.650;2023-09-08T04:20:33;15.45;;;9.27;;
37851;SDS011;23691;52.486;4.650;2023-09-08T04:22:59;15.20;;;9.30;;
37851;SDS011;23691;52.486;4.650;2023-09-08T04:25:24;14.63;;;8.95;;
37851;SDS011;23691;52.486;4.650;2023-09-08T04:27:52;16.83;;;9.30;;
37851;SDS011;23691;52.486;4.650;2023-09-08T04:30:20;16.90;;;9.25;;
37851;SDS011;23691;52.486;4.650;2023-09-08T04:32:46;13.55;;;8.68;;
37851;SDS011;23691;52.486;4.650;2023-09-08T04:35:14;15.40;;;9.43;;
37851;SDS011;23691;52.486;4.650;2023-09-08T04:37:39;17.40;;;8.75;;
37851;SDS011;23691;52.486;4.650;2023-09-08T04:40:05;16.05;;;9.02;;
37851;SDS011;23691;52.486;4.650;2023-09-08T04:42:38;14.32;;;9.18;;
37851;SDS011;23691;52.486;4.650;2023-09-08T04:45:13;15.02;;;9.32;;
37851;SDS011;23691;52.486;4.650;2023-09-08T04:47:39;15.05;;;8.98;;
37851;SDS011;23691;52.486;4.650;2023-09-08T04:50:19;14.70;;;8.75;;
37851;SDS011;23691;52.486;4.650;2023-09-08T04:52:44;15.15;;;8.88;;
37851;SDS011;23691;52.486;4.650;2023-09-08T04:55:13;15.60;;;9.30;;
37851;SDS011;23691;52.486;4.650;2023-09-08T04:57:41;15.20;;;9.50;;
37851;SDS011;23691;52.486;4.650;2023-09-08T05:00:07;14.02;;;9.30;;
37851;SDS011;23691;52.486;4.650;2023-09-08T05:02:33;16.05;;;8.95;;
37851;SDS011;23691;52.486;4.650;2023-09-08T05:04:58;15.15;;;8.77;;
37851;SDS011;23691;52.486;4.650;2023-09-08T05:07:27;16.33;;;9.40;;
37851;SDS011;23691;52.486;4.650;2023-09-08T05:09:53;14.70;;;8.65;;
37851;SDS011;23691;52.486;4.650;2023-09-08T05:12:19;20.98;;;9.45;;
37851;SDS011;23691;52.486;4.650;2023-09-08T05:14:44;15.57;;;9.00;;
37851;SDS011;23691;52.486;4.650;2023-09-08T05:17:10;16.42;;;8.88;;
37851;SDS011;23691;52.486;4.650;2023-09-08T05:19:36;15.90;;;8.82;;
37851;SDS011;23691;52.486;4.650;2023-09-08T05:22:02;14.70;;;8.90;;
37851;SDS011;23691;52.486;4.650;2023-09-08T05:24:28;16.52;;;9.20;;
37851;SDS011;23691;52.486;4.650;2023-09-08T05:26:54;15.18;;;8.90;;
37851;SDS011;23691;52.486;4.650;2023-09-08T05:29:22;18.55;;;9.27;;
37851;SDS011;23691;52.486;4.650;2023-09-08T05:31:49;15.55;;;9.07;;
37851;SDS011;23691;52.486;4.650;2023-09-08T05:34:14;16.30;;;9.07;;
37851;SDS011;23691;52.486;4.650;2023-09-08T05:36:43;16.45;;;9.43;;
37851;SDS011;23691;52.486;4.650;2023-09-08T05:39:08;15.60;;;9.38;;
37851;SDS011;23691;52.486;4.650;2023-09-08T05:41:36;16.10;;;9.70;;
37851;SDS011;23691;52.486;4.650;2023-09-08T05:44:21;16.02;;;9.45;;
37851;SDS011;23691;52.486;4.650;2023-09-08T05:46:46;18.00;;;9.30;;
37851;SDS011;23691;52.486;4.650;2023-09-08T05:49:12;18.27;;;9.70;;
37851;SDS011;23691;52.486;4.650;2023-09-08T05:51:39;20.25;;;9.90;;
37851;SDS011;23691;52.486;4.650;2023-09-08T05:54:04;18.75;;;10.05;;
37851;SDS011;23691;52.486;4.650;2023-09-08T05:56:33;19.52;;;9.65;;
37851;SDS011;23691;52.486;4.650;2023-09-08T05:58:58;19.70;;;10.32;;
37851;SDS011;23691;52.486;4.650;2023-09-08T06:01:26;16.40;;;10.43;;
37851;SDS011;23691;52.486;4.650;2023-09-08T06:03:51;18.73;;;10.13;;
37851;SDS011;23691;52.486;4.650;2023-09-08T06:06:19;19.10;;;10.98;;
37851;SDS011;23691;52.486;4.650;2023-09-08T06:08:51;19.83;;;11.23;;
37851;SDS011;23691;52.486;4.650;2023-09-08T06:11:16;19.80;;;11.00;;
37851;SDS011;23691;52.486;4.650;2023-09-08T06:16:42;18.85;;;11.68;;
37851;SDS011;23691;52.486;4.650;2023-09-08T06:19:07;21.02;;;11.05;;
37851;SDS011;23691;52.486;4.650;2023-09-08T06:21:32;18.75;;;11.32;;
37851;SDS011;23691;52.486;4.650;2023-09-08T06:23:58;18.67;;;10.90;;
37851;SDS011;23691;52.486;4.650;2023-09-08T06:26:24;19.45;;;11.57;;
37851;SDS011;23691;52.486;4.650;2023-09-08T06:28:52;16.73;;;10.57;;
37851;SDS011;23691;52.486;4.650;2023-09-08T06:31:21;19.02;;;11.48;;
37851;SDS011;23691;52.486;4.650;2023-09-08T06:33:47;19.08;;;11.68;;
37851;SDS011;23691;52.486;4.650;2023-09-08T06:36:13;18.77;;;11.48;;
37851;SDS011;23691;52.486;4.650;2023-09-08T06:38:38;22.83;;;11.80;;
37851;SDS011;23691;52.486;4.650;2023-09-08T06:41:10;18.42;;;11.98;;
37851;SDS011;23691;52.486;4.650;2023-09-08T06:43:36;18.77;;;11.80;;
37851;SDS011;23691;52.486;4.650;2023-09-08T06:46:02;18.52;;;11.27;;
37851;SDS011;23691;52.486;4.650;2023-09-08T06:48:27;20.58;;;12.05;;
37851;SDS011;23691;52.486;4.650;2023-09-08T06:50:53;21.20;;;11.40;;
37851;SDS011;23691;52.486;4.650;2023-09-08T06:53:21;21.55;;;11.57;;
37851;SDS011;23691;52.486;4.650;2023-09-08T06:55:57;19.08;;;12.23;;
37851;SDS011;23691;52.486;4.650;2023-09-08T06:58:23;23.65;;;13.77;;
37851;SDS011;23691;52.486;4.650;2023-09-08T07:00:49;21.88;;;12.85;;
37851;SDS011;23691;52.486;4.650;2023-09-08T07:03:18;22.77;;;12.27;;
37851;SDS011;23691;52.486;4.650;2023-09-08T07:05:43;18.85;;;10.85;;
37851;SDS011;23691;52.486;4.650;2023-09-08T07:08:09;24.75;;;12.93;;
37851;SDS011;23691;52.486;4.650;2023-09-08T07:10:34;21.42;;;12.32;;
37851;SDS011;23691;52.486;4.650;2023-09-08T07:13:00;20.95;;;11.85;;
37851;SDS011;23691;52.486;4.650;2023-09-08T07:15:25;18.77;;;11.48;;
37851;SDS011;23691;52.486;4.650;2023-09-08T07:17:51;24.58;;;12.52;;
37851;SDS011;23691;52.486;4.650;2023-09-08T07:20:16;20.58;;;12.82;;
37851;SDS011;23691;52.486;4.650;2023-09-08T07:22:42;21.23;;;12.90;;
37851;SDS011;23691;52.486;4.650;2023-09-08T07:25:08;22.17;;;12.40;;
37851;SDS011;23691;52.486;4.650;2023-09-08T07:27:34;22.58;;;13.07;;
37851;SDS011;23691;52.486;4.650;2023-09-08T07:30:00;26.70;;;13.65;;
37851;SDS011;23691;52.486;4.650;2023-09-08T07:32:25;26.27;;;14.35;;
37851;SDS011;23691;52.486;4.650;2023-09-08T07:34:50;24.48;;;13.80;;
37851;SDS011;23691;52.486;4.650;2023-09-08T07:37:23;21.75;;;13.75;;
37851;SDS011;23691;52.486;4.650;2023-09-08T07:39:52;22.88;;;13.90;;
37851;SDS011;23691;52.486;4.650;2023-09-08T07:42:17;22.60;;;12.73;;
37851;SDS011;23691;52.486;4.650;2023-09-08T07:44:48;25.00;;;13.90;;
37851;SDS011;23691;52.486;4.650;2023-09-08T07:47:13;27.00;;;14.23;;
37851;SDS011;23691;52.486;4.650;2023-09-08T07:49:39;23.88;;;13.70;;
37851;SDS011;23691;52.486;4.650;2023-09-08T07:52:04;22.25;;;13.60;;
37851;SDS011;23691;52.486;4.650;2023-09-08T07:54:31;19.92;;;13.43;;
37851;SDS011;23691;52.486;4.650;2023-09-08T07:56:56;22.30;;;12.60;;
37851;SDS011;23691;52.486;4.650;2023-09-08T07:59:21;19.50;;;12.25;;
37851;SDS011;23691;52.486;4.650;2023-09-08T08:01:47;23.33;;;13.85;;
37851;SDS011;23691;52.486;4.650;2023-09-08T08:04:12;20.73;;;13.30;;
37851;SDS011;23691;52.486;4.650;2023-09-08T08:06:40;23.08;;;12.65;;
37851;SDS011;23691;52.486;4.650;2023-09-08T08:09:06;22.15;;;13.13;;
37851;SDS011;23691;52.486;4.650;2023-09-08T08:11:31;17.58;;;11.73;;
37851;SDS011;23691;52.486;4.650;2023-09-08T08:13:57;21.80;;;13.48;;
37851;SDS011;23691;52.486;4.650;2023-09-08T08:16:22;23.55;;;13.27;;
37851;SDS011;23691;52.486;4.650;2023-09-08T08:18:48;25.52;;;13.45;;
37851;SDS011;23691;52.486;4.650;2023-09-08T08:21:14;21.70;;;13.15;;
37851;SDS011;23691;52.486;4.650;2023-09-08T08:23:39;24.35;;;12.05;;
37851;SDS011;23691;52.486;4.650;2023-09-08T08:26:05;22.25;;;12.63;;
37851;SDS011;23691;52.486;4.650;2023-09-08T08:28:33;24.73;;;13.20;;
37851;SDS011;23691;52.486;4.650;2023-09-08T08:30:59;19.73;;;12.57;;
37851;SDS011;23691;52.486;4.650;2023-09-08T08:33:24;22.75;;;13.30;;
37851;SDS011;23691;52.486;4.650;2023-09-08T08:35:51;19.83;;;12.52;;
37851;SDS011;23691;52.486;4.650;2023-09-08T08:38:18;21.40;;;12.10;;
37851;SDS011;23691;52.486;4.650;2023-09-08T08:40:44;21.33;;;12.55;;
37851;SDS011;23691;52.486;4.650;2023-09-08T08:43:12;21.15;;;13.07;;
37851;SDS011;23691;52.486;4.650;2023-09-08T08:45:38;21.42;;;13.10;;
37851;SDS011;23691;52.486;4.650;2023-09-08T08:48:06;23.55;;;12.45;;
37851;SDS011;23691;52.486;4.650;2023-09-08T08:50:37;22.95;;;13.18;;
37851;SDS011;23691;52.486;4.650;2023-09-08T08:53:03;24.10;;;12.02;;
37851;SDS011;23691;52.486;4.650;2023-09-08T08:55:30;24.38;;;12.27;;
37851;SDS011;23691;52.486;4.650;2023-09-08T08:58:00;20.75;;;11.70;;
37851;SDS011;23691;52.486;4.650;2023-09-08T09:00:28;22.17;;;12.32;;
37851;SDS011;23691;52.486;4.650;2023-09-08T09:02:54;25.63;;;11.82;;
37851;SDS011;23691;52.486;4.650;2023-09-08T09:05:22;22.33;;;11.48;;
37851;SDS011;23691;52.486;4.650;2023-09-08T09:07:49;22.60;;;12.82;;
37851;SDS011;23691;52.486;4.650;2023-09-08T09:10:16;19.02;;;12.23;;
37851;SDS011;23691;52.486;4.650;2023-09-08T09:12:42;18.65;;;11.68;;
37851;SDS011;23691;52.486;4.650;2023-09-08T09:15:07;19.27;;;11.15;;
37851;SDS011;23691;52.486;4.650;2023-09-08T09:17:33;20.80;;;12.00;;
37851;SDS011;23691;52.486;4.650;2023-09-08T09:20:14;17.75;;;11.10;;
37851;SDS011;23691;52.486;4.650;2023-09-08T09:22:42;23.67;;;11.35;;
37851;SDS011;23691;52.486;4.650;2023-09-08T09:25:09;17.52;;;10.80;;
37851;SDS011;23691;52.486;4.650;2023-09-08T09:27:51;21.50;;;11.98;;
37851;SDS011;23691;52.486;4.650;2023-09-08T09:33:03;19.10;;;11.63;;
37851;SDS011;23691;52.486;4.650;2023-09-08T09:35:42;24.85;;;11.55;;
37851;SDS011;23691;52.486;4.650;2023-09-08T09:38:10;22.70;;;10.70;;
37851;SDS011;23691;52.486;4.650;2023-09-08T09:40:36;18.65;;;11.20;;
37851;SDS011;23691;52.486;4.650;2023-09-08T09:43:05;18.05;;;10.95;;
37851;SDS011;23691;52.486;4.650;2023-09-08T09:45:33;16.27;;;9.95;;
37851;SDS011;23691;52.486;4.650;2023-09-08T09:48:03;23.63;;;11.18;;
37851;SDS011;23691;52.486;4.650;2023-09-08T09:50:32;19.90;;;10.13;;
37851;SDS011;23691;52.486;4.650;2023-09-08T09:53:17;21.83;;;9.70;;
37851;SDS011;23691;52.486;4.650;2023-09-08T09:55:50;21.15;;;11.00;;
37851;SDS011;23691;52.486;4.650;2023-09-08T09:58:16;16.95;;;9.70;;
37851;SDS011;23691;52.486;4.650;2023-09-08T10:00:45;18.85;;;9.98;;
37851;SDS011;23691;52.486;4.650;2023-09-08T10:03:13;19.52;;;10.50;;
37851;SDS011;23691;52.486;4.650;2023-09-08T10:05:42;17.93;;;10.53;;
37851;SDS011;23691;52.486;4.650;2023-09-08T10:08:08;15.75;;;8.90;;
37851;SDS011;23691;52.486;4.650;2023-09-08T10:10:34;17.08;;;10.65;;
37851;SDS011;23691;52.486;4.650;2023-09-08T10:13:07;19.48;;;10.73;;
37851;SDS011;23691;52.486;4.650;2023-09-08T10:15:38;17.80;;;10.25;;
37851;SDS011;23691;52.486;4.650;2023-09-08T10:18:09;24.65;;;8.90;;
37851;SDS011;23691;52.486;4.650;2023-09-08T10:20:41;18.98;;;10.70;;
37851;SDS011;23691;52.486;4.650;2023-09-08T10:23:20;16.38;;;10.15;;
37851;SDS011;23691;52.486;4.650;2023-09-08T10:25:53;20.05;;;9.90;;
37851;SDS011;23691;52.486;4.650;2023-09-08T10:28:22;18.23;;;9.60;;
37851;SDS011;23691;52.486;4.650;2023-09-08T10:30:54;19.10;;;8.98;;
37851;SDS011;23691;52.486;4.650;2023-09-08T10:33:20;17.00;;;9.65;;
37851;SDS011;23691;52.486;4.650;2023-09-08T10:35:55;19.15;;;9.85;;
37851;SDS011;23691;52.486;4.650;2023-09-08T10:38:22;16.60;;;9.87;;
37851;SDS011;23691;52.486;4.650;2023-09-08T10:40:54;17.85;;;9.63;;
37851;SDS011;23691;52.486;4.650;2023-09-08T10:44:15;16.77;;;8.57;;
37851;SDS011;23691;52.486;4.650;2023-09-08T10:49:05;19.13;;;9.35;;
37851;SDS011;23691;52.486;4.650;2023-09-08T10:51:35;13.95;;;7.32;;
37851;SDS011;23691;52.486;4.650;2023-09-08T10:54:00;17.67;;;9.13;;
37851;SDS011;23691;52.486;4.650;2023-09-08T10:57:15;16.95;;;8.88;;
37851;SDS011;23691;52.486;4.650;2023-09-08T10:59:22;18.00;;;11.82;;
37851;SDS011;23691;52.486;4.650;2023-09-08T11:01:55;21.35;;;12.95;;
37851;SDS011;23691;52.486;4.650;2023-09-08T11:04:20;26.92;;;14.20;;
37851;SDS011;23691;52.486;4.650;2023-09-08T11:06:48;24.33;;;14.02;;
37851;SDS011;23691;52.486;4.650;2023-09-08T11:09:16;23.35;;;13.88;;
37851;SDS011;23691;52.486;4.650;2023-09-08T11:11:42;24.98;;;14.02;;
37851;SDS011;23691;52.486;4.650;2023-09-08T11:14:07;27.02;;;15.18;;
37851;SDS011;23691;52.486;4.650;2023-09-08T11:16:33;23.38;;;13.95;;
37851;SDS011;23691;52.486;4.650;2023-09-08T11:18:58;26.38;;;14.93;;
37851;SDS011;23691;52.486;4.650;2023-09-08T11:23:52;28.65;;;15.23;;
37851;SDS011;23691;52.486;4.650;2023-09-08T11:26:17;21.75;;;12.75;;
37851;SDS011;23691;52.486;4.650;2023-09-08T11:28:44;23.17;;;11.95;;
37851;SDS011;23691;52.486;4.650;2023-09-08T11:31:13;20.95;;;11.40;;
37851;SDS011;23691;52.486;4.650;2023-09-08T11:33:39;25.45;;;10.65;;
37851;SDS011;23691;52.486;4.650;2023-09-08T11:36:10;24.13;;;12.45;;
37851;SDS011;23691;52.486;4.650;2023-09-08T11:38:42;26.13;;;11.90;;
37851;SDS011;23691;52.486;4.650;2023-09-08T11:41:11;26.35;;;13.02;;
37851;SDS011;23691;52.486;4.650;2023-09-08T11:43:39;20.42;;;10.75;;
37851;SDS011;23691;52.486;4.650;2023-09-08T11:46:10;22.05;;;11.57;;
37851;SDS011;23691;52.486;4.650;2023-09-08T11:48:36;20.30;;;10.43;;
37851;SDS011;23691;52.486;4.650;2023-09-08T11:51:04;18.38;;;9.48;;
37851;SDS011;23691;52.486;4.650;2023-09-08T11:53:32;20.55;;;10.18;;
37851;SDS011;23691;52.486;4.650;2023-09-08T11:56:02;17.80;;;8.02;;
37851;SDS011;23691;52.486;4.650;2023-09-08T11:58:27;16.23;;;8.15;;
37851;SDS011;23691;52.486;4.650;2023-09-08T12:00:55;21.70;;;10.73;;
37851;SDS011;23691;52.486;4.650;2023-09-08T12:03:23;22.10;;;11.38;;
37851;SDS011;23691;52.486;4.650;2023-09-08T12:05:52;21.80;;;11.93;;
37851;SDS011;23691;52.486;4.650;2023-09-08T12:08:17;18.15;;;10.65;;
37851;SDS011;23691;52.486;4.650;2023-09-08T12:10:43;19.15;;;10.80;;
37851;SDS011;23691;52.486;4.650;2023-09-08T12:13:11;23.08;;;11.27;;
37851;SDS011;23691;52.486;4.650;2023-09-08T12:18:06;19.98;;;10.23;;
37851;SDS011;23691;52.486;4.650;2023-09-08T12:20:33;19.60;;;10.00;;
37851;SDS011;23691;52.486;4.650;2023-09-08T12:23:04;18.40;;;9.23;;
37851;SDS011;23691;52.486;4.650;2023-09-08T12:25:30;16.50;;;7.55;;
37851;SDS011;23691;52.486;4.650;2023-09-08T12:27:59;15.68;;;7.60;;
37851;SDS011;23691;52.486;4.650;2023-09-08T12:30:26;17.38;;;7.45;;
37851;SDS011;23691;52.486;4.650;2023-09-08T12:32:58;13.18;;;6.38;;
37851;SDS011;23691;52.486;4.650;2023-09-08T12:35:24;13.82;;;6.35;;
37851;SDS011;23691;52.486;4.650;2023-09-08T12:40:23;12.32;;;6.00;;
37851;SDS011;23691;52.486;4.650;2023-09-08T12:42:49;11.38;;;5.60;;
37851;SDS011;23691;52.486;4.650;2023-09-08T12:45:14;11.98;;;5.88;;
37851;SDS011;23691;52.486;4.650;2023-09-08T12:47:39;14.48;;;6.35;;
37851;SDS011;23691;52.486;4.650;2023-09-08T12:50:05;11.38;;;5.70;;
37851;SDS011;23691;52.486;4.650;2023-09-08T12:52:30;11.55;;;5.13;;
37851;SDS011;23691;52.486;4.650;2023-09-08T12:54:57;11.20;;;4.55;;
37851;SDS011;23691;52.486;4.650;2023-09-08T12:57:22;9.93;;;4.50;;
37851;SDS011;23691;52.486;4.650;2023-09-08T12:59:47;11.95;;;5.15;;
37851;SDS011;23691;52.486;4.650;2023-09-08T13:02:13;10.23;;;4.93;;
37851;SDS011;23691;52.486;4.650;2023-09-08T13:04:38;9.63;;;4.47;;
37851;SDS011;23691;52.486;4.650;2023-09-08T13:07:04;11.60;;;5.22;;
37851;SDS011;23691;52.486;4.650;2023-09-08T13:09:29;11.00;;;5.07;;
37851;SDS011;23691;52.486;4.650;2023-09-08T13:11:54;11.77;;;4.97;;
37851;SDS011;23691;52.486;4.650;2023-09-08T13:14:23;14.63;;;4.65;;
37851;SDS011;23691;52.486;4.650;2023-09-08T13:16:48;12.35;;;4.70;;
37851;SDS011;23691;52.486;4.650;2023-09-08T13:19:14;12.98;;;5.13;;
37851;SDS011;23691;52.486;4.650;2023-09-08T13:21:39;8.80;;;3.60;;
37851;SDS011;23691;52.486;4.650;2023-09-08T13:24:06;9.57;;;3.60;;
37851;SDS011;23691;52.486;4.650;2023-09-08T13:26:32;11.02;;;3.80;;
37851;SDS011;23691;52.486;4.650;2023-09-08T13:28:58;9.45;;;3.80;;
37851;SDS011;23691;52.486;4.650;2023-09-08T13:31:23;8.57;;;3.50;;
37851;SDS011;23691;52.486;4.650;2023-09-08T13:33:49;9.07;;;3.75;;
37851;SDS011;23691;52.486;4.650;2023-09-08T13:36:14;11.48;;;4.57;;
37851;SDS011;23691;52.486;4.650;2023-09-08T13:38:39;13.20;;;3.80;;
37851;SDS011;23691;52.486;4.650;2023-09-08T13:41:05;10.93;;;4.30;;
37851;SDS011;23691;52.486;4.650;2023-09-08T13:43:30;13.45;;;3.47;;
37851;SDS011;23691;52.486;4.650;2023-09-08T13:46:01;13.57;;;4.22;;
37851;SDS011;23691;52.486;4.650;2023-09-08T13:48:26;12.10;;;3.72;;
37851;SDS011;23691;52.486;4.650;2023-09-08T13:50:52;9.38;;;3.40;;
37851;SDS011;23691;52.486;4.650;2023-09-08T13:53:21;9.25;;;3.88;;
37851;SDS011;23691;52.486;4.650;2023-09-08T13:55:47;8.23;;;3.40;;
37851;SDS011;23691;52.486;4.650;2023-09-08T13:58:19;10.90;;;4.15;;
37851;SDS011;23691;52.486;4.650;2023-09-08T14:00:44;10.02;;;3.35;;
37851;SDS011;23691;52.486;4.650;2023-09-08T14:03:10;10.27;;;3.47;;
37851;SDS011;23691;52.486;4.650;2023-09-08T14:05:58;8.85;;;3.58;;
37851;SDS011;23691;52.486;4.650;2023-09-08T14:08:26;10.68;;;3.30;;
37851;SDS011;23691;52.486;4.650;2023-09-08T14:10:57;9.13;;;3.63;;
37851;SDS011;23691;52.486;4.650;2023-09-08T14:13:23;15.38;;;3.90;;
37851;SDS011;23691;52.486;4.650;2023-09-08T14:15:58;10.60;;;3.63;;
37851;SDS011;23691;52.486;4.650;2023-09-08T14:18:26;9.02;;;3.35;;
37851;SDS011;23691;52.486;4.650;2023-09-08T14:20:53;13.68;;;4.90;;
37851;SDS011;23691;52.486;4.650;2023-09-08T14:23:25;9.68;;;3.95;;
37851;SDS011;23691;52.486;4.650;2023-09-08T14:26:05;10.70;;;3.80;;
37851;SDS011;23691;52.486;4.650;2023-09-08T14:28:36;8.20;;;3.20;;
37851;SDS011;23691;52.486;4.650;2023-09-08T14:31:04;10.43;;;3.60;;
37851;SDS011;23691;52.486;4.650;2023-09-08T14:33:33;11.70;;;3.45;;
37851;SDS011;23691;52.486;4.650;2023-09-08T14:36:01;11.45;;;4.30;;
37851;SDS011;23691;52.486;4.650;2023-09-08T14:38:29;13.25;;;4.38;;
37851;SDS011;23691;52.486;4.650;2023-09-08T14:40:55;12.27;;;4.07;;
37851;SDS011;23691;52.486;4.650;2023-09-08T14:43:49;9.60;;;3.92;;
37851;SDS011;23691;52.486;4.650;2023-09-08T14:46:15;11.77;;;4.10;;
37851;SDS011;23691;52.486;4.650;2023-09-08T14:48:41;12.90;;;4.43;;
37851;SDS011;23691;52.486;4.650;2023-09-08T14:51:09;9.63;;;3.63;;
37851;SDS011;23691;52.486;4.650;2023-09-08T14:53:34;10.77;;;4.07;;
37851;SDS011;23691;52.486;4.650;2023-09-08T14:56:00;10.25;;;3.75;;
37851;SDS011;23691;52.486;4.650;2023-09-08T14:58:26;10.48;;;4.47;;
37851;SDS011;23691;52.486;4.650;2023-09-08T15:00:57;12.75;;;3.78;;